モスクワ/シェレメーチエヴォ の空港の天気 - METARとTAF

シェレメーチエヴォ国際空港(モスクワ) ( UUEE / SVO ) - ロシア モスクワ
飛行場実況気象(Metar)
観測時間04/21 17:30 MSK (04/21 14:30 UTC)
風向・風速不定 1m/s
視程10km以上
天気現象
なし
気温16℃
湿度27%
気圧1026hPa
METARUUEE 211430Z VRB01MPS CAVOK 16/M03 Q1026 R06R/CLRD62 R06C/CLRD62 NOSIG
過去の天気等 Google飛行場航空写真 Wunderground天気予報

過去48時間のMETAR

飛行場予報(TAF)
発表時間: 4/21 16:54 MSK (4/21 13:54 UTC)
予報対象時間: 21日18時 MSK ~ 22日18時 MSK
風向・風速不定 1m/s
視程10km以上
なし
22日7時 MSK ~ 22日9時 MSK に徐々に
風向・風速北西 5m/s
TAF UUEE 211354Z 2115/2215 VRB01MPS CAVOK TX17/2212Z TN04/2202Z
BECMG 2204/2206 32005MPS